createdAt,value
2023-05-15T00:01:02.638Z,13.27
2023-05-15T00:06:06.124Z,12.27
2023-05-15T00:11:07.922Z,11.23
2023-05-15T00:16:09.702Z,11.55
2023-05-15T00:21:12.674Z,10.82
2023-05-15T00:26:16.004Z,10.43
2023-05-15T00:31:17.700Z,9.93
2023-05-15T00:36:21.666Z,10.32
2023-05-15T00:41:28.786Z,9.90
2023-05-15T00:46:32.083Z,9.68
2023-05-15T00:51:33.697Z,9.85
2023-05-15T00:56:35.509Z,9.80
2023-05-15T01:01:37.387Z,9.15
2023-05-15T01:06:39.196Z,8.02
2023-05-15T01:11:42.634Z,9.52
2023-05-15T01:16:47.112Z,7.55
2023-05-15T01:22:10.267Z,8.60
2023-05-15T01:27:35.704Z,7.85
2023-05-15T01:32:52.394Z,8.00
2023-05-15T01:38:16.821Z,6.85
2023-05-15T01:43:24.319Z,7.90
2023-05-15T01:48:28.478Z,7.28
2023-05-15T01:53:34.757Z,6.97
2023-05-15T01:58:38.974Z,6.88
2023-05-15T02:03:42.443Z,6.10
2023-05-15T02:08:46.640Z,6.93
2023-05-15T02:13:49.520Z,6.22
2023-05-15T02:18:52.734Z,6.03
2023-05-15T02:23:54.911Z,7.03
2023-05-15T02:29:12.558Z,7.40
2023-05-15T02:34:48.438Z,8.48
2023-05-15T02:39:54.401Z,9.75
2023-05-15T02:44:58.598Z,12.23
2023-05-15T02:50:00.633Z,13.52
2023-05-15T02:55:02.296Z,12.35
2023-05-15T03:00:07.431Z,13.77
2023-05-15T03:05:10.145Z,13.40
2023-05-15T03:10:11.941Z,14.07
2023-05-15T03:15:13.562Z,12.32
2023-05-15T03:20:15.375Z,11.65
2023-05-15T03:25:17.256Z,10.98
2023-05-15T03:30:18.962Z,10.02
2023-05-15T03:35:20.597Z,11.95
2023-05-15T03:40:22.184Z,10.27
2023-05-15T03:45:24.199Z,11.55
2023-05-15T03:50:26.024Z,11.07
2023-05-15T03:55:27.834Z,12.73
2023-05-15T04:00:29.584Z,12.05
2023-05-15T04:05:31.237Z,12.45
2023-05-15T04:10:33.738Z,13.88
2023-05-15T04:15:35.657Z,13.70
2023-05-15T04:20:37.402Z,10.77
2023-05-15T04:25:39.685Z,10.13
2023-05-15T04:30:41.705Z,10.43
2023-05-15T04:35:43.560Z,10.05
2023-05-15T04:40:46.856Z,22.00
2023-05-15T04:45:49.017Z,8.77
2023-05-15T04:50:51.433Z,8.85
2023-05-15T04:55:53.715Z,9.32
2023-05-15T05:00:55.533Z,11.02
2023-05-15T05:05:57.154Z,12.90
2023-05-15T05:10:58.811Z,15.90
2023-05-15T05:16:00.532Z,15.35
2023-05-15T05:21:03.645Z,16.48
2023-05-15T05:26:06.215Z,17.65
2023-05-15T05:31:08.201Z,18.70
2023-05-15T05:36:09.990Z,22.45
2023-05-15T05:41:11.655Z,19.10
2023-05-15T05:46:13.425Z,21.23
2023-05-15T05:51:20.035Z,19.67
2023-05-15T05:56:22.704Z,22.02
2023-05-15T06:01:24.444Z,18.85
2023-05-15T06:06:26.046Z,19.00
2023-05-15T06:11:27.720Z,19.02
2023-05-15T06:16:29.415Z,21.23
2023-05-15T06:21:31.290Z,23.52
2023-05-15T06:26:32.964Z,34.00
2023-05-15T06:31:34.668Z,19.58
2023-05-15T06:36:37.223Z,19.77
2023-05-15T06:41:38.819Z,19.52
2023-05-15T06:46:46.879Z,20.35
2023-05-15T06:51:48.578Z,20.10
2023-05-15T06:56:50.356Z,20.27
2023-05-15T07:01:52.074Z,21.08
2023-05-15T07:06:53.687Z,21.33
2023-05-15T07:11:55.301Z,19.55
2023-05-15T07:16:57.011Z,18.88
2023-05-15T07:21:58.670Z,17.80
2023-05-15T07:27:00.394Z,18.38
2023-05-15T07:32:02.089Z,18.33
2023-05-15T07:37:03.884Z,19.20
2023-05-15T07:42:05.840Z,20.05
2023-05-15T07:47:07.736Z,20.25
2023-05-15T07:52:09.307Z,20.80
2023-05-15T07:57:11.048Z,19.92
2023-05-15T08:02:12.750Z,20.05
2023-05-15T08:07:15.199Z,21.63
2023-05-15T08:12:17.728Z,20.77
2023-05-15T08:17:20.749Z,20.65
2023-05-15T08:22:22.614Z,22.80
2023-05-15T08:27:24.250Z,21.33
2023-05-15T08:32:26.833Z,21.67
2023-05-15T08:37:28.552Z,21.98
2023-05-15T08:42:43.006Z,22.23
2023-05-15T08:47:45.058Z,21.27
2023-05-15T08:52:47.873Z,20.90
2023-05-15T08:57:50.552Z,21.17
2023-05-15T09:02:54.528Z,19.40
2023-05-15T09:07:58.869Z,18.27
2023-05-15T09:13:02.442Z,19.13
2023-05-15T09:18:04.458Z,21.10
2023-05-15T09:23:22.171Z,19.35
2023-05-15T09:28:31.590Z,17.08
2023-05-15T09:33:35.640Z,15.20
2023-05-15T09:38:42.908Z,17.75
2023-05-15T09:43:46.161Z,19.55
2023-05-15T09:48:47.954Z,15.93
2023-05-15T09:53:52.041Z,15.35
2023-05-15T09:59:00.888Z,16.60
2023-05-15T10:04:06.539Z,13.13
2023-05-15T10:09:08.655Z,12.85
2023-05-15T10:14:13.179Z,15.40
2023-05-15T10:19:17.220Z,12.95
2023-05-15T10:24:21.693Z,11.85
2023-05-15T10:29:25.678Z,8.27
2023-05-15T10:34:28.912Z,8.15
2023-05-15T10:39:30.968Z,8.90
2023-05-15T10:44:32.584Z,9.63
2023-05-15T10:49:35.756Z,8.25
2023-05-15T10:54:37.500Z,8.13
2023-05-15T10:59:41.495Z,8.60
2023-05-15T11:04:46.904Z,8.57
2023-05-15T11:09:48.577Z,11.18
2023-05-15T11:14:55.864Z,13.07
2023-05-15T11:19:58.586Z,15.63
2023-05-15T11:25:01.629Z,12.60
2023-05-15T11:30:22.936Z,10.02
2023-05-15T11:36:00.711Z,7.60
2023-05-15T11:41:03.572Z,7.80
2023-05-15T11:46:07.936Z,4.85
2023-05-15T11:51:26.371Z,3.53
2023-05-15T11:56:30.827Z,11.57
2023-05-15T12:01:43.199Z,4.70
2023-05-15T12:06:49.861Z,3.83
2023-05-15T12:11:55.959Z,7.88
2023-05-15T12:17:07.238Z,4.28
2023-05-15T12:22:09.137Z,4.65
2023-05-15T12:27:12.936Z,3.00
2023-05-15T12:32:17.219Z,7.43
2023-05-15T12:37:23.249Z,5.95
2023-05-15T12:42:25.215Z,4.63
2023-05-15T12:47:29.221Z,8.05
2023-05-15T12:52:31.439Z,3.65
2023-05-15T12:57:34.045Z,18.88
2023-05-15T13:02:36.930Z,6.25
2023-05-15T13:07:43.902Z,2.28
2023-05-15T13:12:46.547Z,14.02
2023-05-15T13:17:48.373Z,2.72
2023-05-15T13:22:50.067Z,2.60
2023-05-15T13:27:51.763Z,2.50
2023-05-15T13:32:55.513Z,2.50
2023-05-15T13:37:57.548Z,2.45
2023-05-15T13:42:59.256Z,2.10
2023-05-15T13:48:00.967Z,2.60
2023-05-15T13:53:02.653Z,2.42
2023-05-15T13:58:04.253Z,3.25
2023-05-15T14:03:06.481Z,3.00
2023-05-15T14:08:08.205Z,3.50
2023-05-15T14:13:10.209Z,6.32
2023-05-15T14:18:13.325Z,3.47
2023-05-15T14:23:16.924Z,2.60
2023-05-15T14:28:19.250Z,4.55
2023-05-15T14:33:21.012Z,8.75
2023-05-15T14:38:22.739Z,2.70
2023-05-15T14:43:25.049Z,3.70
2023-05-15T14:48:26.738Z,3.58
2023-05-15T14:53:28.362Z,3.45
2023-05-15T14:58:30.646Z,8.23
2023-05-15T15:03:34.028Z,3.53
2023-05-15T15:08:36.178Z,4.22
2023-05-15T15:13:37.947Z,3.42
2023-05-15T15:18:39.523Z,9.15
2023-05-15T15:23:41.124Z,10.20
2023-05-15T15:28:42.719Z,7.22
2023-05-15T15:33:46.611Z,4.05
2023-05-15T15:38:48.983Z,2.60
2023-05-15T15:43:50.707Z,2.65
2023-05-15T15:48:52.326Z,2.33
2023-05-15T15:53:54.039Z,2.60
2023-05-15T15:58:55.610Z,2.75
2023-05-15T16:03:57.373Z,4.30
2023-05-15T16:08:59.817Z,18.35
2023-05-15T16:14:01.436Z,3.25
2023-05-15T16:19:03.224Z,1.88
2023-05-15T16:24:05.407Z,6.32
2023-05-15T16:29:07.154Z,2.22
2023-05-15T16:34:09.300Z,9.10
2023-05-15T16:39:11.209Z,11.60
2023-05-15T16:44:12.873Z,1.73
2023-05-15T16:49:16.584Z,3.20
2023-05-15T16:54:18.370Z,2.95
2023-05-15T16:59:19.971Z,2.22
2023-05-15T17:04:21.630Z,2.65
2023-05-15T17:09:23.251Z,2.63
2023-05-15T17:14:25.023Z,2.15
2023-05-15T17:19:26.664Z,2.13
2023-05-15T17:24:35.576Z,2.60
2023-05-15T17:29:40.908Z,2.38
2023-05-15T17:34:43.456Z,3.17
2023-05-15T17:39:45.783Z,3.35
2023-05-15T17:44:47.822Z,2.75
2023-05-15T17:49:49.548Z,1.75
2023-05-15T17:54:51.273Z,3.10
2023-05-15T17:59:52.988Z,2.60
2023-05-15T18:04:54.706Z,1.63
2023-05-15T18:09:56.416Z,2.55
2023-05-15T18:14:58.060Z,2.67
2023-05-15T18:19:59.795Z,2.90
2023-05-15T18:25:02.062Z,2.88
2023-05-15T18:30:04.633Z,3.95
2023-05-15T18:35:06.804Z,1.70
2023-05-15T18:40:09.577Z,2.85
2023-05-15T18:45:13.141Z,3.10
2023-05-15T18:50:16.124Z,3.47
2023-05-15T18:55:17.990Z,2.72
2023-05-15T19:00:36.490Z,2.85
2023-05-15T19:05:39.363Z,2.72
2023-05-15T19:10:50.552Z,2.33
2023-05-15T19:15:52.935Z,2.17
2023-05-15T19:20:54.571Z,2.22
2023-05-15T19:25:56.205Z,2.28
2023-05-15T19:30:57.951Z,2.42
2023-05-15T19:35:59.632Z,3.63
2023-05-15T19:41:01.393Z,3.30
2023-05-15T19:46:03.536Z,2.30
2023-05-15T19:51:05.307Z,1.88
2023-05-15T19:56:07.353Z,2.53
2023-05-15T20:01:09.108Z,2.60
2023-05-15T20:06:12.249Z,1.50
2023-05-15T20:11:13.859Z,3.28
2023-05-15T20:16:17.032Z,2.72
2023-05-15T20:21:18.667Z,2.65
2023-05-15T20:26:22.346Z,1.92
2023-05-15T20:31:24.069Z,2.60
2023-05-15T20:36:26.193Z,3.50
2023-05-15T20:41:27.848Z,2.00
2023-05-15T20:46:30.668Z,2.55
2023-05-15T20:51:33.121Z,2.58
2023-05-15T20:56:34.728Z,2.10
2023-05-15T21:01:36.761Z,2.10
2023-05-15T21:06:38.488Z,1.73
2023-05-15T21:11:40.082Z,2.58
2023-05-15T21:16:42.230Z,2.60
2023-05-15T21:21:43.822Z,2.05
2023-05-15T21:26:47.015Z,2.92
2023-05-15T21:31:48.772Z,2.33
2023-05-15T21:36:50.523Z,1.90
2023-05-15T21:41:52.480Z,2.42
2023-05-15T21:46:54.116Z,2.20
2023-05-15T21:51:56.153Z,2.30
2023-05-15T21:56:58.535Z,2.53
2023-05-15T22:02:00.206Z,2.53
2023-05-15T22:07:01.933Z,2.20
2023-05-15T22:12:03.768Z,2.42
2023-05-15T22:17:05.663Z,2.85
2023-05-15T22:22:07.562Z,2.35
2023-05-15T22:27:09.178Z,1.98
2023-05-15T22:32:10.894Z,3.25
2023-05-15T22:37:13.096Z,2.10
2023-05-15T22:42:15.131Z,1.80
2023-05-15T22:47:16.831Z,1.90
2023-05-15T22:52:18.763Z,2.15
2023-05-15T22:57:20.524Z,2.10
2023-05-15T23:02:22.217Z,2.03
2023-05-15T23:07:28.735Z,2.10
2023-05-15T23:12:30.916Z,1.85
2023-05-15T23:17:32.535Z,2.72
2023-05-15T23:22:34.348Z,1.83
2023-05-15T23:27:38.217Z,2.13
2023-05-15T23:32:39.980Z,1.58
2023-05-15T23:37:41.792Z,2.17
2023-05-15T23:42:43.423Z,1.50
2023-05-15T23:47:46.958Z,1.67
2023-05-15T23:52:48.649Z,2.08
2023-05-15T23:57:50.780Z,1.98
